sensor_id;sensor_type;location;lat;lon;timestamp;pressure;altitude;pressure_sealevel;temperature;humidity
20620;BME280;10469;42.720;23.252;2022-12-07T00:00:30;94902.38;;;6.26;100.00
20620;BME280;10469;42.720;23.252;2022-12-07T00:02:55;94882.75;;;6.14;100.00
20620;BME280;10469;42.720;23.252;2022-12-07T00:05:21;94895.66;;;6.11;100.00
20620;BME280;10469;42.720;23.252;2022-12-07T00:07:46;94885.22;;;6.02;100.00
20620;BME280;10469;42.720;23.252;2022-12-07T00:10:12;94880.09;;;6.08;100.00
20620;BME280;10469;42.720;23.252;2022-12-07T00:12:37;94895.03;;;6.09;100.00
20620;BME280;10469;42.720;23.252;2022-12-07T00:15:03;94880.50;;;6.11;100.00
20620;BME280;10469;42.720;23.252;2022-12-07T00:17:28;94897.28;;;6.12;100.00
20620;BME280;10469;42.720;23.252;2022-12-07T00:19:54;94886.44;;;6.07;100.00
20620;BME280;10469;42.720;23.252;2022-12-07T00:22:19;94887.88;;;6.09;100.00
20620;BME280;10469;42.720;23.252;2022-12-07T00:24:45;94895.44;;;6.12;100.00
20620;BME280;10469;42.720;23.252;2022-12-07T00:27:10;94882.34;;;6.11;100.00
20620;BME280;10469;42.720;23.252;2022-12-07T00:29:36;94885.22;;;6.09;100.00
20620;BME280;10469;42.720;23.252;2022-12-07T00:32:02;94899.53;;;6.08;100.00
20620;BME280;10469;42.720;23.252;2022-12-07T00:34:28;94898.53;;;6.09;100.00
20620;BME280;10469;42.720;23.252;2022-12-07T00:36:53;94909.38;;;6.14;100.00
20620;BME280;10469;42.720;23.252;2022-12-07T00:39:19;94896.28;;;6.06;100.00
20620;BME280;10469;42.720;23.252;2022-12-07T00:41:44;94882.34;;;6.04;100.00
20620;BME280;10469;42.720;23.252;2022-12-07T00:44:10;94892.38;;;6.09;100.00
20620;BME280;10469;42.720;23.252;2022-12-07T00:46:36;94884.41;;;6.02;100.00
20620;BME280;10469;42.720;23.252;2022-12-07T00:49:01;94887.03;;;6.09;100.00
20620;BME280;10469;42.720;23.252;2022-12-07T00:51:27;94888.88;;;6.08;100.00
20620;BME280;10469;42.720;23.252;2022-12-07T00:53:52;94877.66;;;6.06;100.00
20620;BME280;10469;42.720;23.252;2022-12-07T00:56:23;94887.47;;;5.99;100.00
20620;BME280;10469;42.720;23.252;2022-12-07T00:58:57;94880.69;;;6.16;100.00
20620;BME280;10469;42.720;23.252;2022-12-07T01:01:24;94879.50;;;5.99;100.00
20620;BME280;10469;42.720;23.252;2022-12-07T01:03:50;94875.38;;;6.10;100.00
20620;BME280;10469;42.720;23.252;2022-12-07T01:06:17;94880.47;;;6.24;100.00
20620;BME280;10469;42.720;23.252;2022-12-07T01:08:43;94874.78;;;5.88;100.00
20620;BME280;10469;42.720;23.252;2022-12-07T01:11:13;94881.97;;;5.87;100.00
20620;BME280;10469;42.720;23.252;2022-12-07T01:13:39;94883.00;;;5.93;100.00
20620;BME280;10469;42.720;23.252;2022-12-07T01:16:07;94865.56;;;6.10;100.00
20620;BME280;10469;42.720;23.252;2022-12-07T01:18:34;94874.16;;;5.99;100.00
20620;BME280;10469;42.720;23.252;2022-12-07T01:21:02;94864.78;;;5.96;100.00
20620;BME280;10469;42.720;23.252;2022-12-07T01:23:29;94871.06;;;6.09;100.00
20620;BME280;10469;42.720;23.252;2022-12-07T01:25:59;94870.50;;;5.93;100.00
20620;BME280;10469;42.720;23.252;2022-12-07T01:28:25;94875.38;;;6.03;100.00
20620;BME280;10469;42.720;23.252;2022-12-07T01:31:03;94873.56;;;5.97;100.00
20620;BME280;10469;42.720;23.252;2022-12-07T01:33:30;94847.16;;;5.89;100.00
20620;BME280;10469;42.720;23.252;2022-12-07T01:36:22;94871.69;;;6.04;100.00
20620;BME280;10469;42.720;23.252;2022-12-07T01:38:50;94868.47;;;5.75;100.00
20620;BME280;10469;42.720;23.252;2022-12-07T01:41:20;94867.22;;;5.71;100.00
20620;BME280;10469;42.720;23.252;2022-12-07T01:46:36;94849.41;;;5.78;100.00
20620;BME280;10469;42.720;23.252;2022-12-07T01:49:04;94866.41;;;5.77;100.00
20620;BME280;10469;42.720;23.252;2022-12-07T01:51:31;94857.81;;;5.75;100.00
20620;BME280;10469;42.720;23.252;2022-12-07T01:53:57;94847.16;;;5.82;100.00
20620;BME280;10469;42.720;23.252;2022-12-07T01:56:26;94849.19;;;5.87;100.00
20620;BME280;10469;42.720;23.252;2022-12-07T01:58:52;94854.75;;;5.92;100.00
20620;BME280;10469;42.720;23.252;2022-12-07T02:01:19;94853.69;;;5.99;100.00
20620;BME280;10469;42.720;23.252;2022-12-07T02:03:45;94848.81;;;5.96;100.00
20620;BME280;10469;42.720;23.252;2022-12-07T02:06:13;94845.91;;;6.05;100.00
20620;BME280;10469;42.720;23.252;2022-12-07T02:08:42;94844.22;;;6.23;100.00
20620;BME280;10469;42.720;23.252;2022-12-07T02:11:08;94843.00;;;6.19;100.00
20620;BME280;10469;42.720;23.252;2022-12-07T02:13:36;94848.91;;;6.21;100.00
20620;BME280;10469;42.720;23.252;2022-12-07T02:16:18;94851.22;;;6.11;100.00
20620;BME280;10469;42.720;23.252;2022-12-07T02:30:19;94846.97;;;5.70;100.00
20620;BME280;10469;42.720;23.252;2022-12-07T02:33:04;94831.63;;;5.52;100.00
20620;BME280;10469;42.720;23.252;2022-12-07T02:43:15;94838.00;;;5.58;100.00
20620;BME280;10469;42.720;23.252;2022-12-07T02:45:44;94847.97;;;5.76;100.00
20620;BME280;10469;42.720;23.252;2022-12-07T02:48:13;94831.63;;;5.59;100.00
20620;BME280;10469;42.720;23.252;2022-12-07T02:50:38;94831.84;;;5.71;100.00
20620;BME280;10469;42.720;23.252;2022-12-07T02:53:04;94834.50;;;5.64;100.00
20620;BME280;10469;42.720;23.252;2022-12-07T02:55:41;94826.31;;;5.59;100.00
20620;BME280;10469;42.720;23.252;2022-12-07T03:01:47;94824.28;;;5.35;100.00
20620;BME280;10469;42.720;23.252;2022-12-07T03:04:02;94811.41;;;5.45;100.00
20620;BME280;10469;42.720;23.252;2022-12-07T03:06:39;94819.97;;;5.60;100.00
20620;BME280;10469;42.720;23.252;2022-12-07T03:09:49;94819.34;;;5.51;100.00
20620;BME280;10469;42.720;23.252;2022-12-07T03:12:52;94816.31;;;5.41;100.00
20620;BME280;10469;42.720;23.252;2022-12-07T03:16:12;94814.66;;;5.47;100.00
20620;BME280;10469;42.720;23.252;2022-12-07T03:18:20;94801.41;;;5.27;100.00
20620;BME280;10469;42.720;23.252;2022-12-07T03:20:48;94828.19;;;5.45;100.00
20620;BME280;10469;42.720;23.252;2022-12-07T03:23:18;94806.91;;;5.32;100.00
20620;BME280;10469;42.720;23.252;2022-12-07T03:25:47;94814.66;;;5.47;100.00
20620;BME280;10469;42.720;23.252;2022-12-07T03:28:17;94814.47;;;5.42;100.00
20620;BME280;10469;42.720;23.252;2022-12-07T03:30:49;94825.69;;;5.44;100.00
20620;BME280;10469;42.720;23.252;2022-12-07T03:35:51;94825.31;;;5.53;100.00
20620;BME280;10469;42.720;23.252;2022-12-07T03:38:20;94822.66;;;5.47;100.00
20620;BME280;10469;42.720;23.252;2022-12-07T03:41:23;94822.63;;;5.60;100.00
20620;BME280;10469;42.720;23.252;2022-12-07T03:43:49;94817.13;;;5.55;100.00
20620;BME280;10469;42.720;23.252;2022-12-07T03:57:04;94811.81;;;5.35;100.00
20620;BME280;10469;42.720;23.252;2022-12-07T03:59:30;94821.66;;;5.28;100.00
20620;BME280;10469;42.720;23.252;2022-12-07T04:02:01;94804.88;;;5.14;100.00
20620;BME280;10469;42.720;23.252;2022-12-07T04:04:27;94814.88;;;5.25;100.00
20620;BME280;10469;42.720;23.252;2022-12-07T04:06:53;94811.00;;;5.28;100.00
20620;BME280;10469;42.720;23.252;2022-12-07T04:09:19;94813.66;;;5.28;100.00
20620;BME280;10469;42.720;23.252;2022-12-07T04:11:45;94806.31;;;5.10;100.00
20620;BME280;10469;42.720;23.252;2022-12-07T04:14:10;94802.00;;;4.89;100.00
20620;BME280;10469;42.720;23.252;2022-12-07T04:16:50;94818.94;;;4.68;100.00
20620;BME280;10469;42.720;23.252;2022-12-07T04:19:16;94814.44;;;4.82;100.00
20620;BME280;10469;42.720;23.252;2022-12-07T04:21:43;94814.44;;;4.82;100.00
20620;BME280;10469;42.720;23.252;2022-12-07T04:24:08;94813.66;;;4.95;100.00
20620;BME280;10469;42.720;23.252;2022-12-07T04:26:34;94812.84;;;4.94;100.00
20620;BME280;10469;42.720;23.252;2022-12-07T04:29:00;94816.31;;;5.08;100.00
20620;BME280;10469;42.720;23.252;2022-12-07T04:31:25;94808.53;;;5.13;100.00
20620;BME280;10469;42.720;23.252;2022-12-07T04:33:51;94816.75;;;5.18;100.00
20620;BME280;10469;42.720;23.252;2022-12-07T04:36:17;94809.97;;;5.09;100.00
20620;BME280;10469;42.720;23.252;2022-12-07T04:38:42;94795.25;;;5.13;100.00
20620;BME280;10469;42.720;23.252;2022-12-07T04:41:08;94806.72;;;5.20;100.00
20620;BME280;10469;42.720;23.252;2022-12-07T04:43:34;94810.41;;;5.06;100.00
20620;BME280;10469;42.720;23.252;2022-12-07T04:46:00;94817.97;;;5.16;100.00
20620;BME280;10469;42.720;23.252;2022-12-07T04:48:26;94803.84;;;5.02;100.00
20620;BME280;10469;42.720;23.252;2022-12-07T04:50:52;94797.53;;;5.10;100.00
20620;BME280;10469;42.720;23.252;2022-12-07T04:53:17;94810.38;;;4.93;100.00
20620;BME280;10469;42.720;23.252;2022-12-07T04:55:44;94830.63;;;4.94;100.00
20620;BME280;10469;42.720;23.252;2022-12-07T04:58:11;94839.59;;;4.86;100.00
20620;BME280;10469;42.720;23.252;2022-12-07T05:00:37;94806.69;;;4.81;100.00
20620;BME280;10469;42.720;23.252;2022-12-07T05:03:02;94818.97;;;5.01;100.00
20620;BME280;10469;42.720;23.252;2022-12-07T05:05:28;94803.00;;;4.95;100.00
20620;BME280;10469;42.720;23.252;2022-12-07T05:07:53;94813.25;;;4.85;100.00
20620;BME280;10469;42.720;23.252;2022-12-07T05:10:19;94799.34;;;4.89;100.00
20620;BME280;10469;42.720;23.252;2022-12-07T05:12:45;94818.16;;;5.08;100.00
20620;BME280;10469;42.720;23.252;2022-12-07T05:15:11;94813.66;;;4.95;100.00
20620;BME280;10469;42.720;23.252;2022-12-07T05:17:37;94821.63;;;5.08;100.00
20620;BME280;10469;42.720;23.252;2022-12-07T05:20:03;94825.94;;;5.16;100.00
20620;BME280;10469;42.720;23.252;2022-12-07T05:22:29;94819.59;;;5.10;100.00
20620;BME280;10469;42.720;23.252;2022-12-07T05:24:55;94792.38;;;5.21;100.00
20620;BME280;10469;42.720;23.252;2022-12-07T05:27:20;94825.13;;;5.28;100.00
20620;BME280;10469;42.720;23.252;2022-12-07T05:29:46;94824.09;;;5.29;100.00
20620;BME280;10469;42.720;23.252;2022-12-07T05:32:11;94819.78;;;5.28;100.00
20620;BME280;10469;42.720;23.252;2022-12-07T05:34:37;94822.44;;;5.09;100.00
20620;BME280;10469;42.720;23.252;2022-12-07T05:37:03;94814.47;;;5.22;100.00
20620;BME280;10469;42.720;23.252;2022-12-07T05:39:28;94827.13;;;5.26;100.00
20620;BME280;10469;42.720;23.252;2022-12-07T05:41:54;94827.56;;;5.03;100.00
20620;BME280;10469;42.720;23.252;2022-12-07T05:44:42;94804.25;;;5.12;100.00
20620;BME280;10469;42.720;23.252;2022-12-07T05:47:09;94811.19;;;5.33;100.00
20620;BME280;10469;42.720;23.252;2022-12-07T05:49:34;94798.13;;;5.32;100.00
20620;BME280;10469;42.720;23.252;2022-12-07T05:52:00;94807.72;;;5.39;100.00
20620;BME280;10469;42.720;23.252;2022-12-07T05:54:25;94806.09;;;5.18;100.00
20620;BME280;10469;42.720;23.252;2022-12-07T05:56:51;94803.66;;;5.23;100.00
20620;BME280;10469;42.720;23.252;2022-12-07T05:59:16;94808.53;;;5.13;100.00
20620;BME280;10469;42.720;23.252;2022-12-07T06:04:17;94798.53;;;5.15;100.00
20620;BME280;10469;42.720;23.252;2022-12-07T06:06:43;94802.63;;;5.24;100.00
20620;BME280;10469;42.720;23.252;2022-12-07T06:09:09;94801.00;;;5.10;100.00
20620;BME280;10469;42.720;23.252;2022-12-07T06:11:35;94815.28;;;5.16;100.00
20620;BME280;10469;42.720;23.252;2022-12-07T06:14:19;94798.53;;;5.02;100.00
20620;BME280;10469;42.720;23.252;2022-12-07T06:16:44;94816.94;;;5.23;100.00
20620;BME280;10469;42.720;23.252;2022-12-07T06:19:10;94821.44;;;5.36;100.00
20620;BME280;10469;42.720;23.252;2022-12-07T06:21:36;94820.81;;;5.41;100.00
20620;BME280;10469;42.720;23.252;2022-12-07T06:24:01;94822.06;;;5.32;100.00
20620;BME280;10469;42.720;23.252;2022-12-07T06:26:27;94821.00;;;5.52;100.00
20620;BME280;10469;42.720;23.252;2022-12-07T06:28:52;94824.69;;;5.45;100.00
20620;BME280;10469;42.720;23.252;2022-12-07T06:31:18;94822.03;;;5.45;100.00
20620;BME280;10469;42.720;23.252;2022-12-07T06:33:44;94826.34;;;5.33;100.00
20620;BME280;10469;42.720;23.252;2022-12-07T06:36:10;94833.69;;;5.31;100.00
20620;BME280;10469;42.720;23.252;2022-12-07T06:38:35;94815.91;;;4.98;100.00
20620;BME280;10469;42.720;23.252;2022-12-07T06:41:01;94835.28;;;4.92;100.00
20620;BME280;10469;42.720;23.252;2022-12-07T06:43:26;94843.09;;;4.93;100.00
20620;BME280;10469;42.720;23.252;2022-12-07T06:45:52;94840.41;;;4.87;100.00
20620;BME280;10469;42.720;23.252;2022-12-07T06:48:18;94844.50;;;4.89;100.00
20620;BME280;10469;42.720;23.252;2022-12-07T06:50:45;94844.28;;;4.77;100.00
20620;BME280;10469;42.720;23.252;2022-12-07T06:53:10;94839.38;;;4.88;100.00
20620;BME280;10469;42.720;23.252;2022-12-07T06:55:36;94841.44;;;4.99;100.00
20620;BME280;10469;42.720;23.252;2022-12-07T06:58:01;94835.13;;;5.07;100.00
20620;BME280;10469;42.720;23.252;2022-12-07T07:00:28;94836.78;;;5.01;100.00
20620;BME280;10469;42.720;23.252;2022-12-07T07:02:53;94844.56;;;5.22;100.00
20620;BME280;10469;42.720;23.252;2022-12-07T07:05:19;94843.13;;;5.40;100.00
20620;BME280;10469;42.720;23.252;2022-12-07T07:07:49;94836.94;;;5.52;100.00
20620;BME280;10469;42.720;23.252;2022-12-07T07:10:14;94847.19;;;5.09;100.00
20620;BME280;10469;42.720;23.252;2022-12-07T07:12:40;94838.81;;;5.32;100.00
20620;BME280;10469;42.720;23.252;2022-12-07T07:15:06;94848.81;;;5.63;100.00
20620;BME280;10469;42.720;23.252;2022-12-07T07:17:31;94836.56;;;5.49;100.00
20620;BME280;10469;42.720;23.252;2022-12-07T07:19:57;94848.81;;;5.43;100.00
20620;BME280;10469;42.720;23.252;2022-12-07T07:22:22;94836.13;;;5.52;100.00
20620;BME280;10469;42.720;23.252;2022-12-07T07:24:48;94828.16;;;5.59;100.00
20620;BME280;10469;42.720;23.252;2022-12-07T07:27:13;94822.16;;;6.10;100.00
20620;BME280;10469;42.720;23.252;2022-12-07T07:29:39;94833.44;;;5.78;100.00
20620;BME280;10469;42.720;23.252;2022-12-07T07:32:04;94838.50;;;6.65;100.00
20620;BME280;10469;42.720;23.252;2022-12-07T07:34:30;94838.16;;;6.86;100.00
20620;BME280;10469;42.720;23.252;2022-12-07T07:36:55;94834.50;;;7.12;100.00
20620;BME280;10469;42.720;23.252;2022-12-07T07:39:21;94838.75;;;7.51;100.00
20620;BME280;10469;42.720;23.252;2022-12-07T07:41:46;94835.47;;;7.49;100.00
20620;BME280;10469;42.720;23.252;2022-12-07T07:44:12;94819.69;;;8.95;100.00
20620;BME280;10469;42.720;23.252;2022-12-07T07:46:38;94824.84;;;9.85;100.00
20620;BME280;10469;42.720;23.252;2022-12-07T07:49:03;94821.78;;;10.17;100.00
20620;BME280;10469;42.720;23.252;2022-12-07T07:51:29;94821.69;;;8.99;100.00
20620;BME280;10469;42.720;23.252;2022-12-07T07:53:54;94810.94;;;8.88;100.00
20620;BME280;10469;42.720;23.252;2022-12-07T07:56:20;94810.47;;;9.44;100.00
20620;BME280;10469;42.720;23.252;2022-12-07T07:58:45;94791.50;;;8.14;100.00
20620;BME280;10469;42.720;23.252;2022-12-07T08:01:11;94828.56;;;7.85;100.00
20620;BME280;10469;42.720;23.252;2022-12-07T08:03:39;94825.75;;;7.55;100.00
20620;BME280;10469;42.720;23.252;2022-12-07T08:06:05;94809.69;;;8.05;100.00
20620;BME280;10469;42.720;23.252;2022-12-07T08:08:30;94817.16;;;7.96;100.00
20620;BME280;10469;42.720;23.252;2022-12-07T08:10:56;94823.50;;;8.20;100.00
20620;BME280;10469;42.720;23.252;2022-12-07T08:13:25;94824.78;;;7.93;100.00
20620;BME280;10469;42.720;23.252;2022-12-07T08:15:51;94801.81;;;7.73;100.00
20620;BME280;10469;42.720;23.252;2022-12-07T08:18:16;94825.47;;;8.62;100.00
20620;BME280;10469;42.720;23.252;2022-12-07T08:20:42;94808.41;;;8.44;100.00
20620;BME280;10469;42.720;23.252;2022-12-07T08:23:08;94809.38;;;9.10;100.00
20620;BME280;10469;42.720;23.252;2022-12-07T08:25:35;94804.81;;;10.63;100.00
20620;BME280;10469;42.720;23.252;2022-12-07T08:28:01;94799.56;;;12.15;100.00
20620;BME280;10469;42.720;23.252;2022-12-07T08:30:28;94818.84;;;11.90;100.00
20620;BME280;10469;42.720;23.252;2022-12-07T08:32:55;94804.66;;;11.61;100.00
20620;BME280;10469;42.720;23.252;2022-12-07T08:35:20;94811.66;;;11.45;100.00
20620;BME280;10469;42.720;23.252;2022-12-07T08:37:46;94807.19;;;11.67;100.00
20620;BME280;10469;42.720;23.252;2022-12-07T08:40:13;94809.03;;;10.59;100.00
20620;BME280;10469;42.720;23.252;2022-12-07T08:42:47;94804.53;;;10.36;100.00
20620;BME280;10469;42.720;23.252;2022-12-07T08:45:14;94796.63;;;9.36;100.00
20620;BME280;10469;42.720;23.252;2022-12-07T08:47:43;94800.09;;;9.13;100.00
20620;BME280;10469;42.720;23.252;2022-12-07T08:50:11;94786.69;;;10.42;100.00
20620;BME280;10469;42.720;23.252;2022-12-07T08:52:39;94796.81;;;8.80;100.00
20620;BME280;10469;42.720;23.252;2022-12-07T08:55:06;94790.69;;;9.34;100.00
20620;BME280;10469;42.720;23.252;2022-12-07T08:57:33;94793.16;;;9.82;100.00
20620;BME280;10469;42.720;23.252;2022-12-07T09:00:00;94790.38;;;9.77;100.00
20620;BME280;10469;42.720;23.252;2022-12-07T09:02:25;94782.69;;;9.57;100.00
20620;BME280;10469;42.720;23.252;2022-12-07T09:04:51;94784.66;;;9.38;100.00
20620;BME280;10469;42.720;23.252;2022-12-07T09:07:17;94782.84;;;8.67;100.00
20620;BME280;10469;42.720;23.252;2022-12-07T09:09:42;94785.25;;;9.64;100.00
20620;BME280;10469;42.720;23.252;2022-12-07T09:12:08;94757.06;;;9.49;100.00
20620;BME280;10469;42.720;23.252;2022-12-07T09:14:34;94768.19;;;10.17;100.00
20620;BME280;10469;42.720;23.252;2022-12-07T09:17:12;94768.84;;;11.72;100.00
20620;BME280;10469;42.720;23.252;2022-12-07T09:19:38;94760.34;;;10.96;100.00
20620;BME280;10469;42.720;23.252;2022-12-07T09:22:04;94759.28;;;11.81;100.00
20620;BME280;10469;42.720;23.252;2022-12-07T09:24:31;94764.03;;;13.27;100.00
20620;BME280;10469;42.720;23.252;2022-12-07T09:26:57;94747.94;;;14.17;100.00
20620;BME280;10469;42.720;23.252;2022-12-07T09:29:23;94754.50;;;15.04;100.00
20620;BME280;10469;42.720;23.252;2022-12-07T09:31:49;94750.31;;;14.61;100.00
20620;BME280;10469;42.720;23.252;2022-12-07T09:34:15;94744.97;;;14.14;100.00
20620;BME280;10469;42.720;23.252;2022-12-07T09:36:40;94739.09;;;13.79;100.00
20620;BME280;10469;42.720;23.252;2022-12-07T09:39:07;94741.25;;;13.77;100.00
20620;BME280;10469;42.720;23.252;2022-12-07T09:41:33;94745.00;;;12.58;100.00
20620;BME280;10469;42.720;23.252;2022-12-07T09:44:04;94751.78;;;11.27;100.00
20620;BME280;10469;42.720;23.252;2022-12-07T09:47:02;94730.34;;;10.82;100.00
20620;BME280;10469;42.720;23.252;2022-12-07T09:50:05;94747.78;;;10.27;100.00
20620;BME280;10469;42.720;23.252;2022-12-07T09:52:31;94736.50;;;9.50;100.00
20620;BME280;10469;42.720;23.252;2022-12-07T09:54:57;94728.06;;;10.91;100.00
20620;BME280;10469;42.720;23.252;2022-12-07T09:57:32;94721.69;;;12.20;100.00
20620;BME280;10469;42.720;23.252;2022-12-07T10:00:03;94733.13;;;12.54;100.00
20620;BME280;10469;42.720;23.252;2022-12-07T10:02:39;94727.03;;;14.45;100.00
20620;BME280;10469;42.720;23.252;2022-12-07T10:05:12;94705.56;;;16.08;100.00
20620;BME280;10469;42.720;23.252;2022-12-07T10:07:38;94718.00;;;15.02;100.00
20620;BME280;10469;42.720;23.252;2022-12-07T10:10:13;94706.97;;;14.98;100.00
20620;BME280;10469;42.720;23.252;2022-12-07T10:15:20;94689.84;;;16.80;100.00
20620;BME280;10469;42.720;23.252;2022-12-07T10:17:50;94678.78;;;16.66;98.16
20620;BME280;10469;42.720;23.252;2022-12-07T10:20:27;94694.78;;;15.62;100.00
20620;BME280;10469;42.720;23.252;2022-12-07T10:23:04;94689.84;;;16.10;100.00
20620;BME280;10469;42.720;23.252;2022-12-07T10:25:35;94677.50;;;15.53;100.00
20620;BME280;10469;42.720;23.252;2022-12-07T10:30:34;94678.81;;;12.84;100.00
20620;BME280;10469;42.720;23.252;2022-12-07T10:33:53;94678.88;;;12.62;100.00
20620;BME280;10469;42.720;23.252;2022-12-07T10:36:36;94661.91;;;12.89;100.00
20620;BME280;10469;42.720;23.252;2022-12-07T10:41:28;94673.34;;;13.06;100.00
20620;BME280;10469;42.720;23.252;2022-12-07T10:43:56;94667.13;;;12.73;100.00
20620;BME280;10469;42.720;23.252;2022-12-07T10:51:55;94661.16;;;12.66;100.00
20620;BME280;10469;42.720;23.252;2022-12-07T10:57:26;94654.84;;;12.83;100.00
20620;BME280;10469;42.720;23.252;2022-12-07T11:03:16;94642.47;;;17.17;99.23
20620;BME280;10469;42.720;23.252;2022-12-07T11:11:09;94618.81;;;17.22;92.94
20620;BME280;10469;42.720;23.252;2022-12-07T11:16:50;94615.94;;;16.74;96.98
20620;BME280;10469;42.720;23.252;2022-12-07T11:22:06;94603.78;;;17.11;94.88
20620;BME280;10469;42.720;23.252;2022-12-07T11:37:51;94590.69;;;17.47;90.69
20620;BME280;10469;42.720;23.252;2022-12-07T11:40:25;94599.13;;;15.53;98.77
20620;BME280;10469;42.720;23.252;2022-12-07T11:45:43;94587.56;;;16.67;95.38
20620;BME280;10469;42.720;23.252;2022-12-07T11:48:18;94585.75;;;16.52;96.77
20620;BME280;10469;42.720;23.252;2022-12-07T11:50:50;94578.72;;;17.24;94.78
20620;BME280;10469;42.720;23.252;2022-12-07T11:53:21;94574.88;;;16.57;96.11
20620;BME280;10469;42.720;23.252;2022-12-07T11:56:17;94582.31;;;16.86;95.71
20620;BME280;10469;42.720;23.252;2022-12-07T12:03:50;94567.28;;;16.15;97.07
20620;BME280;10469;42.720;23.252;2022-12-07T12:06:16;94541.94;;;16.45;97.34
20620;BME280;10469;42.720;23.252;2022-12-07T12:21:56;94547.22;;;15.76;100.00
20620;BME280;10469;42.720;23.252;2022-12-07T12:24:27;94538.63;;;15.49;100.00
20620;BME280;10469;42.720;23.252;2022-12-07T12:27:09;94544.63;;;15.30;100.00
20620;BME280;10469;42.720;23.252;2022-12-07T12:29:41;94544.59;;;15.36;100.00
20620;BME280;10469;42.720;23.252;2022-12-07T12:32:17;94528.22;;;14.96;100.00
20620;BME280;10469;42.720;23.252;2022-12-07T12:42:54;94501.75;;;17.01;93.02
20620;BME280;10469;42.720;23.252;2022-12-07T12:45:27;94516.13;;;16.23;98.62
20620;BME280;10469;42.720;23.252;2022-12-07T12:48:00;94508.63;;;16.89;97.49
20620;BME280;10469;42.720;23.252;2022-12-07T12:50:31;94506.16;;;16.58;98.00
20620;BME280;10469;42.720;23.252;2022-12-07T12:53:01;94512.28;;;17.80;91.97
20620;BME280;10469;42.720;23.252;2022-12-07T13:00:42;94525.97;;;16.04;99.76
20620;BME280;10469;42.720;23.252;2022-12-07T13:03:23;94518.75;;;15.04;100.00
20620;BME280;10469;42.720;23.252;2022-12-07T13:06:19;94525.53;;;14.50;100.00
20620;BME280;10469;42.720;23.252;2022-12-07T13:08:45;94528.50;;;13.45;100.00
20620;BME280;10469;42.720;23.252;2022-12-07T13:11:32;94515.41;;;13.69;100.00
20620;BME280;10469;42.720;23.252;2022-12-07T13:17:01;94520.25;;;13.20;100.00
20620;BME280;10469;42.720;23.252;2022-12-07T13:25:11;94503.03;;;12.36;100.00
20620;BME280;10469;42.720;23.252;2022-12-07T13:27:41;94512.94;;;12.30;100.00
20620;BME280;10469;42.720;23.252;2022-12-07T13:30:27;94522.78;;;11.93;100.00
20620;BME280;10469;42.720;23.252;2022-12-07T13:32:56;94510.59;;;12.12;100.00
20620;BME280;10469;42.720;23.252;2022-12-07T13:35:33;94505.22;;;12.12;100.00
20620;BME280;10469;42.720;23.252;2022-12-07T13:38:02;94499.59;;;11.87;100.00
20620;BME280;10469;42.720;23.252;2022-12-07T13:40:29;94514.53;;;11.77;100.00
20620;BME280;10469;42.720;23.252;2022-12-07T13:43:00;94506.41;;;11.72;100.00
20620;BME280;10469;42.720;23.252;2022-12-07T13:45:31;94472.47;;;11.39;100.00
20620;BME280;10469;42.720;23.252;2022-12-07T13:48:28;94510.31;;;11.38;100.00
20620;BME280;10469;42.720;23.252;2022-12-07T13:50:58;94487.22;;;11.37;100.00
20620;BME280;10469;42.720;23.252;2022-12-07T13:53:25;94506.81;;;11.59;100.00
20620;BME280;10469;42.720;23.252;2022-12-07T13:55:58;94510.75;;;11.51;100.00
20620;BME280;10469;42.720;23.252;2022-12-07T13:58:25;94510.19;;;11.49;100.00
20620;BME280;10469;42.720;23.252;2022-12-07T14:00:51;94513.38;;;11.46;100.00
20620;BME280;10469;42.720;23.252;2022-12-07T14:05:43;94505.50;;;11.40;100.00
20620;BME280;10469;42.720;23.252;2022-12-07T14:13:32;94504.19;;;11.20;100.00
20620;BME280;10469;42.720;23.252;2022-12-07T14:16:01;94516.91;;;11.08;100.00
20620;BME280;10469;42.720;23.252;2022-12-07T14:18:39;94507.31;;;11.12;100.00
20620;BME280;10469;42.720;23.252;2022-12-07T14:23:35;94522.06;;;11.10;100.00
20620;BME280;10469;42.720;23.252;2022-12-07T14:28:36;94509.16;;;10.90;100.00
20620;BME280;10469;42.720;23.252;2022-12-07T14:31:03;94524.94;;;10.86;100.00
20620;BME280;10469;42.720;23.252;2022-12-07T14:33:33;94524.88;;;10.64;100.00
20620;BME280;10469;42.720;23.252;2022-12-07T14:35:59;94505.66;;;10.34;100.00
20620;BME280;10469;42.720;23.252;2022-12-07T14:38:25;94513.22;;;10.37;100.00
20620;BME280;10469;42.720;23.252;2022-12-07T14:40:52;94526.25;;;10.16;100.00
20620;BME280;10469;42.720;23.252;2022-12-07T14:43:18;94517.47;;;10.21;100.00
20620;BME280;10469;42.720;23.252;2022-12-07T14:45:45;94526.38;;;10.10;100.00
20620;BME280;10469;42.720;23.252;2022-12-07T14:48:12;94520.78;;;9.94;100.00
20620;BME280;10469;42.720;23.252;2022-12-07T14:50:41;94528.22;;;9.92;100.00
20620;BME280;10469;42.720;23.252;2022-12-07T14:53:14;94526.16;;;10.11;100.00
20620;BME280;10469;42.720;23.252;2022-12-07T14:55:40;94531.50;;;9.94;100.00
20620;BME280;10469;42.720;23.252;2022-12-07T14:58:06;94531.53;;;9.83;100.00
20620;BME280;10469;42.720;23.252;2022-12-07T15:00:34;94524.91;;;9.85;100.00
20620;BME280;10469;42.720;23.252;2022-12-07T15:02:59;94537.38;;;9.79;100.00
20620;BME280;10469;42.720;23.252;2022-12-07T15:05:25;94516.81;;;9.68;100.00
20620;BME280;10469;42.720;23.252;2022-12-07T15:07:51;94535.41;;;9.75;100.00
20620;BME280;10469;42.720;23.252;2022-12-07T15:10:26;94534.69;;;9.79;100.00
20620;BME280;10469;42.720;23.252;2022-12-07T15:12:57;94554.41;;;9.73;100.00
20620;BME280;10469;42.720;23.252;2022-12-07T15:15:42;94547.91;;;9.69;100.00
20620;BME280;10469;42.720;23.252;2022-12-07T15:18:07;94535.59;;;9.57;100.00